createdAt,value
2018-03-30T00:00:56.638Z,62.15
2018-03-30T00:03:23.883Z,62.22
2018-03-30T00:05:50.363Z,62.17
2018-03-30T00:08:16.856Z,62.14
2018-03-30T00:10:43.337Z,62.16
2018-03-30T00:13:09.937Z,62.11
2018-03-30T00:15:36.407Z,62.10
2018-03-30T00:18:03.687Z,62.13
2018-03-30T00:20:30.157Z,62.12
2018-03-30T00:22:57.370Z,62.12
2018-03-30T00:25:23.888Z,62.04
2018-03-30T00:27:51.124Z,62.14
2018-03-30T00:30:17.630Z,62.13
2018-03-30T00:32:44.854Z,62.10
2018-03-30T00:35:11.322Z,62.13
2018-03-30T00:37:37.807Z,62.06
2018-03-30T00:40:04.452Z,62.16
2018-03-30T00:42:31.757Z,62.15
2018-03-30T00:44:58.984Z,62.14
2018-03-30T00:47:25.430Z,62.13
2018-03-30T00:49:51.908Z,62.08
2018-03-30T00:52:18.377Z,62.08
2018-03-30T00:54:44.859Z,62.09
2018-03-30T00:57:11.329Z,62.10
2018-03-30T00:59:38.622Z,62.04
2018-03-30T01:02:05.215Z,62.06
2018-03-30T01:04:31.724Z,62.08
2018-03-30T01:06:58.985Z,62.09
2018-03-30T01:09:25.513Z,62.05
2018-03-30T01:11:51.978Z,62.03
2018-03-30T01:14:18.842Z,62.09
2018-03-30T01:16:45.373Z,61.98
2018-03-30T01:19:11.928Z,62.03
2018-03-30T01:21:38.507Z,62.09
2018-03-30T01:24:05.001Z,62.05
2018-03-30T01:26:31.469Z,62.10
2018-03-30T01:28:57.949Z,62.04
2018-03-30T01:31:25.221Z,61.99
2018-03-30T01:33:52.470Z,62.07
2018-03-30T01:36:19.002Z,62.04
2018-03-30T01:38:45.503Z,62.03
2018-03-30T01:41:11.956Z,62.02
2018-03-30T01:43:39.212Z,62.05
2018-03-30T01:46:05.694Z,62.02
2018-03-30T01:48:32.399Z,62.04
2018-03-30T01:50:59.102Z,61.99
2018-03-30T01:53:26.398Z,62.05
2018-03-30T01:55:52.914Z,61.98
2018-03-30T01:58:19.471Z,61.91
2018-03-30T02:00:45.985Z,62.01
2018-03-30T02:03:12.429Z,62.01
2018-03-30T02:05:40.126Z,62.03
2018-03-30T02:08:07.372Z,61.96
2018-03-30T02:10:33.847Z,61.99
2018-03-30T02:13:00.319Z,61.99
2018-03-30T02:15:29.102Z,62.00
2018-03-30T02:17:55.965Z,62.01
2018-03-30T02:20:22.498Z,61.92
2018-03-30T02:22:49.139Z,61.92
2018-03-30T02:25:15.969Z,61.92
2018-03-30T02:27:43.486Z,61.96
2018-03-30T02:30:10.030Z,61.96
2018-03-30T02:32:36.505Z,61.95
2018-03-30T02:35:02.994Z,61.95
2018-03-30T02:37:29.709Z,61.96
2018-03-30T02:39:56.376Z,62.01
2018-03-30T02:42:23.290Z,61.96
2018-03-30T02:44:50.005Z,61.90
2018-03-30T02:47:17.549Z,61.89
2018-03-30T02:49:44.624Z,61.98
2018-03-30T02:52:11.954Z,61.94
2018-03-30T02:54:39.198Z,61.91
2018-03-30T02:57:05.707Z,61.98
2018-03-30T02:59:33.046Z,62.01
2018-03-30T03:01:59.843Z,61.94
2018-03-30T03:04:26.608Z,61.89
2018-03-30T03:06:53.957Z,61.94
2018-03-30T03:09:20.420Z,61.95
2018-03-30T03:11:46.917Z,61.93
2018-03-30T03:14:13.366Z,61.93
2018-03-30T03:16:39.840Z,61.97
2018-03-30T03:19:06.299Z,61.88
2018-03-30T03:21:32.886Z,61.90
2018-03-30T03:23:59.342Z,61.91
2018-03-30T03:26:25.812Z,61.88
2018-03-30T03:28:52.296Z,61.81
2018-03-30T03:31:19.537Z,61.89
2018-03-30T03:33:45.999Z,61.91
2018-03-30T03:36:12.470Z,61.91
2018-03-30T03:38:38.944Z,61.92
2018-03-30T03:41:05.453Z,61.92
2018-03-30T03:43:31.926Z,61.89
2018-03-30T03:45:58.372Z,61.94
2018-03-30T03:48:24.870Z,61.94
2018-03-30T03:50:51.335Z,61.93
2018-03-30T03:53:18.587Z,61.94
2018-03-30T03:55:45.061Z,61.92
2018-03-30T03:58:11.548Z,61.93
2018-03-30T04:00:38.774Z,61.90
2018-03-30T04:03:05.270Z,61.92
2018-03-30T04:05:32.510Z,61.94
2018-03-30T04:07:58.984Z,61.92
2018-03-30T04:10:25.446Z,61.96
2018-03-30T04:12:51.937Z,61.90
2018-03-30T04:15:18.399Z,61.92
2018-03-30T04:17:44.899Z,61.94
2018-03-30T04:20:11.381Z,61.98
2018-03-30T04:22:37.881Z,61.95
2018-03-30T04:25:04.339Z,61.93
2018-03-30T04:27:30.827Z,61.85
2018-03-30T04:29:57.293Z,61.99
2018-03-30T04:32:23.770Z,61.93
2018-03-30T04:34:50.268Z,61.98
2018-03-30T04:37:16.735Z,61.98
2018-03-30T04:39:43.219Z,61.93
2018-03-30T04:42:09.683Z,61.92
2018-03-30T04:44:36.177Z,61.95
2018-03-30T04:47:03.406Z,61.94
2018-03-30T04:49:29.884Z,61.94
2018-03-30T04:51:56.328Z,61.89
2018-03-30T04:54:22.828Z,61.88
2018-03-30T04:56:50.039Z,61.89
2018-03-30T04:59:16.526Z,61.90
2018-03-30T05:01:42.972Z,61.94
2018-03-30T05:04:09.466Z,61.90
2018-03-30T05:06:35.918Z,61.89
2018-03-30T05:09:02.416Z,61.93
2018-03-30T05:11:28.883Z,61.90
2018-03-30T05:13:55.358Z,61.88
2018-03-30T05:16:21.798Z,61.86
2018-03-30T05:18:48.276Z,61.85
2018-03-30T05:21:14.762Z,61.91
2018-03-30T05:23:41.231Z,61.91
2018-03-30T05:26:07.718Z,61.89
2018-03-30T05:28:34.187Z,61.93
2018-03-30T05:31:00.680Z,61.90
2018-03-30T05:33:27.139Z,61.89
2018-03-30T05:35:53.622Z,61.92
2018-03-30T05:38:20.077Z,61.95
2018-03-30T05:40:46.568Z,61.93
2018-03-30T05:43:13.035Z,61.91
2018-03-30T05:45:39.523Z,61.92
2018-03-30T05:48:05.995Z,61.86
2018-03-30T05:50:32.467Z,61.84
2018-03-30T05:52:58.924Z,61.92
2018-03-30T05:55:25.412Z,61.93
2018-03-30T05:57:52.623Z,61.93
2018-03-30T06:00:19.101Z,61.93
2018-03-30T06:02:45.560Z,61.95
2018-03-30T06:05:12.068Z,61.96
2018-03-30T06:07:39.295Z,62.03
2018-03-30T06:10:05.755Z,61.96
2018-03-30T06:12:32.231Z,62.02
2018-03-30T06:14:58.700Z,61.93
2018-03-30T06:17:25.182Z,61.95
2018-03-30T06:19:52.399Z,62.00
2018-03-30T06:22:18.882Z,61.91
2018-03-30T06:24:45.369Z,61.88
2018-03-30T06:27:12.605Z,61.95
2018-03-30T06:29:39.068Z,61.92
2018-03-30T06:32:05.536Z,59.95
2018-03-30T06:34:31.999Z,60.02
2018-03-30T06:36:58.503Z,59.84
2018-03-30T06:39:24.978Z,60.80
2018-03-30T06:41:51.458Z,60.93
2018-03-30T06:44:17.943Z,60.98
2018-03-30T06:46:44.440Z,61.26
2018-03-30T06:49:10.892Z,61.46
2018-03-30T06:51:37.391Z,61.42
2018-03-30T06:54:03.864Z,61.48
2018-03-30T06:56:30.327Z,61.67
2018-03-30T06:58:56.816Z,61.76
2018-03-30T07:01:23.289Z,61.65
2018-03-30T07:03:49.770Z,61.79
2018-03-30T07:06:16.247Z,59.75
2018-03-30T07:08:42.719Z,61.61
2018-03-30T07:11:09.164Z,61.18
2018-03-30T07:13:35.664Z,61.35
2018-03-30T07:16:02.131Z,61.45
2018-03-30T07:18:28.619Z,61.52
2018-03-30T07:20:55.088Z,61.59
2018-03-30T07:23:21.588Z,61.60
2018-03-30T07:25:48.809Z,61.69
2018-03-30T07:28:15.302Z,61.68
2018-03-30T07:30:41.753Z,61.62
2018-03-30T07:33:08.231Z,61.57
2018-03-30T07:35:35.459Z,61.62
2018-03-30T07:38:01.943Z,61.67
2018-03-30T07:40:28.399Z,61.66
2018-03-30T07:42:54.863Z,61.70
2018-03-30T07:45:21.353Z,61.75
2018-03-30T07:47:48.589Z,61.75
2018-03-30T07:50:15.093Z,61.65
2018-03-30T07:52:41.555Z,61.77
2018-03-30T07:55:08.061Z,61.72
2018-03-30T07:57:34.524Z,61.73
2018-03-30T08:00:01.019Z,61.81
2018-03-30T08:02:28.247Z,61.82
2018-03-30T08:04:54.716Z,61.78
2018-03-30T08:07:21.189Z,61.80
2018-03-30T08:09:47.695Z,61.79
2018-03-30T08:12:14.150Z,61.79
2018-03-30T08:14:40.648Z,61.74
2018-03-30T08:17:07.118Z,61.84
2018-03-30T08:19:33.606Z,61.80
2018-03-30T08:22:00.836Z,61.83
2018-03-30T08:24:27.338Z,61.88
2018-03-30T08:26:54.567Z,61.77
2018-03-30T08:29:21.066Z,61.85
2018-03-30T08:31:47.528Z,61.89
2018-03-30T08:34:14.754Z,61.86
2018-03-30T08:36:41.221Z,61.82
2018-03-30T08:39:07.695Z,61.81
2018-03-30T08:41:34.186Z,61.87
2018-03-30T08:44:01.434Z,61.97
2018-03-30T08:46:27.908Z,61.88
2018-03-30T08:48:54.377Z,62.00
2018-03-30T08:51:21.624Z,61.93
2018-03-30T08:53:48.094Z,61.99
2018-03-30T08:56:14.579Z,62.01
2018-03-30T08:58:41.812Z,61.98
2018-03-30T09:01:08.313Z,62.02
2018-03-30T09:03:35.525Z,62.07
2018-03-30T09:06:02.007Z,61.99
2018-03-30T09:08:28.488Z,62.00
2018-03-30T09:10:54.962Z,61.90
2018-03-30T09:13:22.191Z,62.03
2018-03-30T09:15:48.669Z,61.98
2018-03-30T09:18:15.141Z,62.04
2018-03-30T09:20:41.613Z,61.98
2018-03-30T09:23:08.872Z,61.91
2018-03-30T09:25:35.331Z,61.96
2018-03-30T09:28:01.831Z,61.90
2018-03-30T09:30:28.290Z,62.08
2018-03-30T09:32:54.794Z,62.07
2018-03-30T09:35:21.251Z,61.90
2018-03-30T09:37:47.731Z,62.07
2018-03-30T09:40:14.194Z,62.02
2018-03-30T09:42:41.448Z,62.09
2018-03-30T09:45:07.922Z,62.01
2018-03-30T09:47:34.408Z,62.02
2018-03-30T09:50:00.883Z,62.04
2018-03-30T09:52:27.375Z,62.00
2018-03-30T09:54:53.858Z,62.15
2018-03-30T09:57:20.335Z,62.10
2018-03-30T09:59:47.583Z,61.95
2018-03-30T10:02:14.093Z,62.05
2018-03-30T10:04:40.553Z,62.03
2018-03-30T10:07:07.016Z,62.04
2018-03-30T10:09:33.513Z,62.04
2018-03-30T10:12:00.000Z,62.17
2018-03-30T10:14:27.246Z,62.17
2018-03-30T10:16:53.710Z,62.14
2018-03-30T10:19:20.208Z,62.14
2018-03-30T10:21:46.657Z,62.03
2018-03-30T10:24:13.142Z,62.15
2018-03-30T10:26:39.585Z,62.14
2018-03-30T10:29:06.065Z,62.21
2018-03-30T10:31:32.529Z,62.07
2018-03-30T10:33:59.027Z,62.15
2018-03-30T10:36:25.470Z,62.25
2018-03-30T10:38:51.971Z,62.10
2018-03-30T10:41:18.429Z,62.11
2018-03-30T10:43:44.904Z,62.16
2018-03-30T10:46:11.350Z,62.16
2018-03-30T10:48:37.868Z,62.19
2018-03-30T10:51:04.336Z,62.03
2018-03-30T10:53:30.805Z,62.09
2018-03-30T10:55:58.072Z,62.09
2018-03-30T10:58:25.283Z,62.07
2018-03-30T11:00:51.763Z,62.31
2018-03-30T11:03:18.237Z,62.14
2018-03-30T11:05:44.712Z,62.20
2018-03-30T11:08:11.171Z,62.30
2018-03-30T11:10:37.648Z,62.29
2018-03-30T11:13:04.889Z,62.30
2018-03-30T11:15:31.375Z,62.16
2018-03-30T11:17:58.615Z,62.35
2018-03-30T11:20:25.099Z,62.28
2018-03-30T11:22:52.326Z,62.18
2018-03-30T11:25:18.819Z,62.29
2018-03-30T11:27:45.261Z,62.28
2018-03-30T11:30:11.735Z,62.33
2018-03-30T11:32:38.181Z,62.18
2018-03-30T11:35:04.675Z,62.22
2018-03-30T11:37:31.889Z,62.36
2018-03-30T11:39:58.338Z,62.30
2018-03-30T11:42:24.816Z,62.37
2018-03-30T11:44:51.271Z,62.16
2018-03-30T11:47:17.741Z,62.39
2018-03-30T11:49:44.185Z,62.32
2018-03-30T11:52:10.678Z,62.28
2018-03-30T11:54:37.139Z,62.18
2018-03-30T11:57:03.638Z,62.30
2018-03-30T11:59:30.110Z,62.30
2018-03-30T12:01:56.636Z,62.17
2018-03-30T12:04:23.870Z,62.29
2018-03-30T12:06:50.355Z,62.25
2018-03-30T12:09:16.833Z,62.29
2018-03-30T12:11:44.082Z,62.32
2018-03-30T12:14:10.585Z,62.31
2018-03-30T12:16:37.036Z,62.25
2018-03-30T12:19:04.284Z,62.21
2018-03-30T12:21:30.732Z,62.27
2018-03-30T12:23:57.216Z,62.10
2018-03-30T12:26:23.682Z,60.30
2018-03-30T12:28:51.169Z,61.14
2018-03-30T12:31:18.406Z,61.49
2018-03-30T12:33:45.213Z,61.60
2018-03-30T12:36:11.693Z,61.68
2018-03-30T12:38:40.477Z,61.81
2018-03-30T12:41:07.817Z,61.88
2018-03-30T12:43:34.325Z,62.00
2018-03-30T12:46:01.727Z,62.06
2018-03-30T12:48:28.238Z,62.07
2018-03-30T12:50:54.907Z,62.11
2018-03-30T12:53:21.546Z,62.10
2018-03-30T12:55:48.034Z,62.15
2018-03-30T12:58:14.568Z,62.20
2018-03-30T13:00:41.040Z,62.15
2018-03-30T13:03:07.481Z,62.26
2018-03-30T13:05:33.972Z,62.08
2018-03-30T13:08:00.435Z,62.09
2018-03-30T13:10:27.668Z,62.19
2018-03-30T13:12:54.122Z,62.07
2018-03-30T13:15:20.610Z,62.16
2018-03-30T13:17:47.087Z,62.05
2018-03-30T13:20:14.347Z,62.05
2018-03-30T13:22:40.837Z,61.81
2018-03-30T13:25:07.371Z,60.07
2018-03-30T13:27:33.821Z,60.96
2018-03-30T13:30:00.621Z,61.33
2018-03-30T13:32:27.100Z,61.10
2018-03-30T13:34:53.643Z,61.32
2018-03-30T13:37:20.131Z,60.96
2018-03-30T13:39:46.601Z,60.91
2018-03-30T13:42:13.056Z,61.13
2018-03-30T13:44:39.725Z,60.81
2018-03-30T13:47:06.217Z,60.84
2018-03-30T13:49:32.698Z,61.00
2018-03-30T13:51:59.167Z,61.16
2018-03-30T13:54:25.623Z,61.31
2018-03-30T13:56:52.112Z,61.12
2018-03-30T13:59:19.586Z,61.21
2018-03-30T14:01:46.155Z,60.71
2018-03-30T14:04:12.596Z,60.48
2018-03-30T14:06:39.069Z,60.55
2018-03-30T14:09:05.564Z,60.78
2018-03-30T14:11:32.070Z,60.79
2018-03-30T14:13:58.555Z,60.99
2018-03-30T14:16:25.046Z,61.17
2018-03-30T14:18:52.366Z,61.17
2018-03-30T14:21:19.168Z,61.29
2018-03-30T14:23:46.619Z,61.29
2018-03-30T14:26:13.093Z,61.31
2018-03-30T14:28:39.565Z,61.43
2018-03-30T14:31:06.021Z,61.49
2018-03-30T14:33:32.496Z,61.47
2018-03-30T14:35:58.966Z,61.53
2018-03-30T14:38:26.241Z,61.62
2018-03-30T14:40:53.473Z,61.51
2018-03-30T14:43:19.934Z,61.54
2018-03-30T14:45:46.425Z,61.60
2018-03-30T14:48:12.909Z,61.70
2018-03-30T14:50:40.177Z,61.67
2018-03-30T14:53:07.411Z,61.70
2018-03-30T14:55:33.901Z,61.72
2018-03-30T14:58:00.376Z,61.71
2018-03-30T15:00:27.679Z,61.84
2018-03-30T15:02:54.149Z,61.95
2018-03-30T15:05:20.654Z,61.78
2018-03-30T15:07:47.101Z,62.02
2018-03-30T15:10:13.602Z,62.00
2018-03-30T15:12:40.066Z,61.90
2018-03-30T15:15:06.517Z,62.01
2018-03-30T15:17:33.003Z,61.84
2018-03-30T15:19:59.474Z,62.03
2018-03-30T15:22:25.954Z,61.78
2018-03-30T15:24:52.414Z,61.88
2018-03-30T15:27:18.912Z,61.93
2018-03-30T15:29:45.371Z,62.03
2018-03-30T15:32:11.856Z,61.91
2018-03-30T15:34:38.314Z,61.99
2018-03-30T15:37:04.836Z,62.03
2018-03-30T15:39:32.067Z,62.07
2018-03-30T15:41:58.543Z,62.08
2018-03-30T15:44:25.041Z,62.15
2018-03-30T15:46:51.507Z,62.19
2018-03-30T15:49:17.986Z,62.18
2018-03-30T15:51:44.452Z,62.17
2018-03-30T15:54:10.925Z,62.21
2018-03-30T15:56:37.365Z,62.15
2018-03-30T15:59:03.851Z,62.17
2018-03-30T16:01:30.341Z,62.20
2018-03-30T16:03:56.827Z,62.21
2018-03-30T16:06:23.272Z,62.31
2018-03-30T16:08:49.755Z,62.35
2018-03-30T16:11:16.209Z,62.30
2018-03-30T16:13:42.690Z,62.30
2018-03-30T16:16:09.157Z,62.30
2018-03-30T16:18:35.634Z,62.27
2018-03-30T16:21:02.106Z,62.47
2018-03-30T16:23:29.345Z,62.43
2018-03-30T16:25:55.823Z,62.40
2018-03-30T16:28:22.297Z,62.46
2018-03-30T16:30:49.537Z,62.46
2018-03-30T16:33:16.000Z,62.51
2018-03-30T16:35:42.492Z,62.52
2018-03-30T16:38:09.723Z,62.39
2018-03-30T16:40:36.222Z,62.49
2018-03-30T16:43:03.461Z,62.40
2018-03-30T16:45:29.947Z,62.47
2018-03-30T16:47:56.401Z,62.45
2018-03-30T16:50:22.897Z,62.50
2018-03-30T16:52:49.355Z,62.53
2018-03-30T16:55:15.823Z,62.50
2018-03-30T16:57:42.300Z,62.59
2018-03-30T17:00:08.791Z,62.49
2018-03-30T17:02:35.246Z,62.64
2018-03-30T17:05:01.753Z,62.68
2018-03-30T17:07:28.207Z,62.55
2018-03-30T17:09:54.651Z,62.65
2018-03-30T17:12:21.890Z,62.58
2018-03-30T17:14:49.143Z,62.47
2018-03-30T17:17:15.614Z,62.60
2018-03-30T17:19:42.069Z,62.66
2018-03-30T17:22:08.600Z,62.66
2018-03-30T17:24:35.070Z,62.66
2018-03-30T17:27:01.556Z,62.70
2018-03-30T17:29:28.006Z,62.72
2018-03-30T17:31:54.492Z,62.57
2018-03-30T17:34:20.967Z,62.60
2018-03-30T17:36:48.229Z,62.72
2018-03-30T17:39:14.691Z,62.63
2018-03-30T17:41:41.176Z,62.61
2018-03-30T17:44:08.404Z,62.61
2018-03-30T17:46:34.901Z,62.63
2018-03-30T17:49:02.139Z,62.68
2018-03-30T17:51:28.609Z,62.73
2018-03-30T17:53:55.058Z,62.69
2018-03-30T17:56:21.529Z,62.62
2018-03-30T17:58:48.019Z,62.60
2018-03-30T18:01:15.250Z,62.74
2018-03-30T18:03:41.735Z,62.72
2018-03-30T18:06:08.986Z,62.64
2018-03-30T18:08:35.477Z,62.66
2018-03-30T18:11:02.722Z,62.69
2018-03-30T18:13:29.241Z,62.81
2018-03-30T18:15:55.747Z,62.84
2018-03-30T18:18:23.234Z,62.76
2018-03-30T18:20:49.714Z,62.76
2018-03-30T18:23:16.226Z,62.72
2018-03-30T18:25:42.702Z,62.71
2018-03-30T18:28:09.250Z,62.70
2018-03-30T18:30:35.710Z,62.64
2018-03-30T18:33:02.213Z,62.67
2018-03-30T18:35:29.424Z,62.80
2018-03-30T18:37:55.914Z,62.71
2018-03-30T18:40:22.382Z,62.69
2018-03-30T18:42:49.662Z,62.75
2018-03-30T18:45:16.115Z,62.71
2018-03-30T18:47:43.364Z,62.72
2018-03-30T18:50:09.822Z,62.61
2018-03-30T18:52:36.266Z,62.59
2018-03-30T18:55:02.779Z,57.22
2018-03-30T18:57:29.239Z,58.72
2018-03-30T18:59:56.484Z,59.70
2018-03-30T19:02:22.987Z,60.16
2018-03-30T19:04:50.232Z,60.26
2018-03-30T19:07:16.680Z,60.60
2018-03-30T19:09:43.166Z,60.81
2018-03-30T19:12:09.659Z,61.00
2018-03-30T19:14:36.153Z,61.03
2018-03-30T19:17:02.618Z,61.25
2018-03-30T19:19:29.104Z,61.26
2018-03-30T19:21:55.576Z,61.37
2018-03-30T19:24:22.842Z,61.46
2018-03-30T19:26:50.070Z,61.58
2018-03-30T19:29:16.545Z,61.66
2018-03-30T19:31:42.989Z,61.67
2018-03-30T19:34:09.466Z,61.66
2018-03-30T19:36:35.952Z,61.83
2018-03-30T19:39:02.444Z,61.91
2018-03-30T19:41:28.916Z,61.80
2018-03-30T19:43:55.371Z,61.94
2018-03-30T19:46:21.872Z,61.84
2018-03-30T19:48:48.316Z,61.92
2018-03-30T19:51:14.816Z,61.96
2018-03-30T19:53:42.030Z,62.06
2018-03-30T19:56:08.528Z,62.04
2018-03-30T19:58:36.011Z,62.06
2018-03-30T20:01:02.484Z,61.99
2018-03-30T20:03:29.721Z,62.11
2018-03-30T20:05:56.212Z,62.13
2018-03-30T20:08:22.657Z,62.15
2018-03-30T20:10:49.121Z,62.15
2018-03-30T20:13:15.578Z,62.22
2018-03-30T20:15:42.059Z,62.16
2018-03-30T20:18:10.064Z,62.17
2018-03-30T20:20:36.569Z,62.10
2018-03-30T20:23:03.036Z,62.21
2018-03-30T20:25:29.519Z,62.24
2018-03-30T20:27:56.755Z,62.21
2018-03-30T20:30:23.337Z,62.37
2018-03-30T20:32:50.040Z,62.38
2018-03-30T20:35:17.257Z,62.34
2018-03-30T20:37:45.580Z,62.38
2018-03-30T20:40:12.682Z,62.32
2018-03-30T20:42:39.729Z,62.36
2018-03-30T20:45:06.510Z,62.39
2018-03-30T20:47:33.566Z,62.34
2018-03-30T20:50:00.438Z,62.40
2018-03-30T20:52:27.428Z,62.47
2018-03-30T20:54:54.400Z,62.46
2018-03-30T20:57:21.205Z,62.48
2018-03-30T20:59:48.059Z,62.48
2018-03-30T21:02:15.840Z,62.49
2018-03-30T21:04:42.618Z,62.42
2018-03-30T21:07:09.957Z,62.51
2018-03-30T21:09:37.338Z,62.50
2018-03-30T21:12:03.947Z,62.53
2018-03-30T21:14:31.597Z,62.56
2018-03-30T21:16:59.182Z,62.57
2018-03-30T21:19:26.090Z,62.52
2018-03-30T21:21:52.941Z,62.53
2018-03-30T21:24:19.919Z,62.51
2018-03-30T21:26:47.165Z,62.58
2018-03-30T21:29:14.213Z,62.59
2018-03-30T21:31:40.932Z,62.61
2018-03-30T21:34:07.966Z,62.63
2018-03-30T21:36:35.451Z,62.65
2018-03-30T21:39:03.059Z,62.59
2018-03-30T21:41:30.048Z,62.52
2018-03-30T21:43:57.436Z,62.58
2018-03-30T21:46:24.402Z,62.61
2018-03-30T21:48:51.482Z,62.63
2018-03-30T21:51:18.532Z,62.68
2018-03-30T21:53:45.372Z,62.55
2018-03-30T21:56:12.182Z,62.55
2018-03-30T21:58:38.731Z,62.68
2018-03-30T22:01:05.191Z,62.61
2018-03-30T22:03:31.691Z,62.68
2018-03-30T22:05:58.150Z,62.63
2018-03-30T22:08:25.409Z,62.73
2018-03-30T22:10:51.875Z,62.74
2018-03-30T22:13:18.384Z,62.65
2018-03-30T22:15:44.842Z,62.73
2018-03-30T22:18:11.307Z,62.71
2018-03-30T22:20:37.799Z,62.72
2018-03-30T22:23:04.241Z,62.70
2018-03-30T22:25:30.734Z,62.62
2018-03-30T22:27:57.202Z,62.66
2018-03-30T22:30:24.440Z,62.72
2018-03-30T22:32:50.911Z,62.61
2018-03-30T22:35:17.417Z,62.71
2018-03-30T22:37:43.889Z,62.65
2018-03-30T22:40:10.388Z,62.60
2018-03-30T22:42:36.829Z,62.69
2018-03-30T22:45:03.298Z,62.61
2018-03-30T22:47:29.759Z,62.69
2018-03-30T22:49:56.265Z,62.57
2018-03-30T22:52:22.749Z,62.68
2018-03-30T22:54:49.228Z,62.68
2018-03-30T22:57:15.687Z,62.62
2018-03-30T22:59:42.162Z,62.66
2018-03-30T23:02:08.661Z,62.66
2018-03-30T23:04:35.128Z,62.63
2018-03-30T23:07:01.606Z,62.66
2018-03-30T23:09:28.088Z,62.69
2018-03-30T23:11:54.584Z,62.65
2018-03-30T23:14:21.061Z,62.66
2018-03-30T23:16:47.539Z,62.63
2018-03-30T23:19:14.002Z,62.69
2018-03-30T23:21:40.572Z,62.67
2018-03-30T23:24:07.843Z,62.62
2018-03-30T23:26:34.360Z,62.69
2018-03-30T23:29:00.826Z,62.67
2018-03-30T23:31:27.328Z,62.70
2018-03-30T23:33:54.552Z,62.69
2018-03-30T23:36:21.267Z,62.65
2018-03-30T23:38:47.786Z,62.65
2018-03-30T23:41:14.250Z,62.71
2018-03-30T23:43:40.786Z,62.60
2018-03-30T23:46:08.172Z,62.64
2018-03-30T23:48:34.701Z,62.69
2018-03-30T23:51:01.978Z,62.69
2018-03-30T23:53:28.425Z,62.64
2018-03-30T23:55:54.905Z,62.64
2018-03-30T23:58:22.129Z,62.64
